createdAt,value
2022-09-02T00:05:03.178Z,20.50
2022-09-02T00:10:06.670Z,20.50
2022-09-02T00:15:10.809Z,20.50
2022-09-02T00:20:15.134Z,20.40
2022-09-02T00:25:18.157Z,20.40
2022-09-02T00:30:21.168Z,20.40
2022-09-02T00:35:26.498Z,20.30
2022-09-02T00:40:32.746Z,20.10
2022-09-02T00:45:38.143Z,20.10
2022-09-02T00:50:42.496Z,20.00
2022-09-02T00:55:49.032Z,19.80
2022-09-02T01:00:56.601Z,19.80
2022-09-02T01:06:02.476Z,19.60
2022-09-02T01:11:06.489Z,19.70
2022-09-02T01:16:14.252Z,19.40
2022-09-02T01:21:19.760Z,19.40
2022-09-02T01:26:24.022Z,19.20
2022-09-02T01:31:28.193Z,18.70
2022-09-02T01:36:48.300Z,19.10
2022-09-02T01:41:51.646Z,19.20
2022-09-02T01:46:55.796Z,19.10
2022-09-02T01:52:00.427Z,19.10
2022-09-02T01:57:03.592Z,18.60
2022-09-02T02:02:07.260Z,18.70
2022-09-02T02:07:11.610Z,18.70
2022-09-02T02:12:14.687Z,18.40
2022-09-02T02:17:17.992Z,18.70
2022-09-02T02:22:22.914Z,18.80
2022-09-02T02:27:25.791Z,18.90
2022-09-02T02:32:29.186Z,18.40
2022-09-02T02:37:33.968Z,18.50
2022-09-02T02:42:37.115Z,18.50
2022-09-02T02:47:40.726Z,18.60
2022-09-02T02:52:45.464Z,18.30
2022-09-02T02:57:49.856Z,18.00
2022-09-02T03:02:57.299Z,18.20
2022-09-02T03:08:01.914Z,18.10
2022-09-02T03:13:06.987Z,18.10
2022-09-02T03:18:10.521Z,18.20
2022-09-02T03:23:15.437Z,17.80
2022-09-02T03:28:22.584Z,18.10
2022-09-02T03:33:25.630Z,18.10
2022-09-02T03:38:30.048Z,17.30
2022-09-02T03:43:32.992Z,17.40
2022-09-02T03:48:36.131Z,17.50
2022-09-02T03:53:40.466Z,17.30
2022-09-02T03:58:46.324Z,17.50
2022-09-02T04:03:50.398Z,17.00
2022-09-02T04:08:55.450Z,17.50
2022-09-02T04:14:00.004Z,17.50
2022-09-02T04:19:06.815Z,17.10
2022-09-02T04:24:13.043Z,17.20
2022-09-02T04:29:21.198Z,17.30
2022-09-02T04:34:27.674Z,17.30
2022-09-02T04:39:31.959Z,16.90
2022-09-02T04:44:35.184Z,17.30
2022-09-02T04:49:39.640Z,17.20
2022-09-02T04:54:44.281Z,17.40
2022-09-02T04:59:48.235Z,17.10
2022-09-02T05:04:52.478Z,17.10
2022-09-02T05:10:06.265Z,16.40
2022-09-02T05:15:14.022Z,16.70
2022-09-02T05:20:17.116Z,16.80
2022-09-02T05:25:22.822Z,16.80
2022-09-02T05:30:26.692Z,17.00
2022-09-02T05:35:31.130Z,16.60
2022-09-02T05:40:39.425Z,16.60
2022-09-02T05:45:45.091Z,16.40
2022-09-02T05:50:50.273Z,16.70
2022-09-02T05:56:06.683Z,16.40
2022-09-02T06:01:12.340Z,16.60
2022-09-02T06:06:15.764Z,16.90
2022-09-02T06:11:20.161Z,17.00
2022-09-02T06:16:26.280Z,16.90
2022-09-02T06:21:30.639Z,17.00
2022-09-02T06:26:36.462Z,17.20
2022-09-02T06:31:42.797Z,17.20
2022-09-02T06:36:49.225Z,17.30
2022-09-02T06:41:56.787Z,17.30
2022-09-02T06:47:05.075Z,17.40
2022-09-02T06:52:08.729Z,17.50
2022-09-02T06:57:22.321Z,17.70
2022-09-02T07:02:28.302Z,17.70
2022-09-02T07:07:32.772Z,17.90
2022-09-02T07:12:44.708Z,18.30
2022-09-02T07:17:52.353Z,18.30
2022-09-02T07:23:04.831Z,18.60
2022-09-02T07:28:12.499Z,18.60
2022-09-02T07:33:17.525Z,18.90
2022-09-02T07:38:22.326Z,19.30
2022-09-02T07:43:28.195Z,19.10
2022-09-02T07:48:34.535Z,19.40
2022-09-02T07:53:39.091Z,19.50
2022-09-02T07:58:46.210Z,19.50
2022-09-02T08:03:50.181Z,19.80
2022-09-02T08:08:53.261Z,19.90
2022-09-02T08:13:57.572Z,20.00
2022-09-02T08:19:00.501Z,20.30
2022-09-02T08:24:05.047Z,20.50
2022-09-02T08:29:11.516Z,20.30
2022-09-02T08:34:14.651Z,20.40
2022-09-02T08:39:18.731Z,20.50
2022-09-02T08:44:25.326Z,20.50
2022-09-02T08:49:32.582Z,20.50
2022-09-02T08:54:44.124Z,21.20
2022-09-02T08:59:48.903Z,21.20
2022-09-02T09:05:21.774Z,21.20
2022-09-02T09:10:30.793Z,21.20
2022-09-02T09:15:41.339Z,21.60
2022-09-02T09:20:45.956Z,21.90
2022-09-02T09:25:50.419Z,21.90
2022-09-02T09:30:54.651Z,22.00
2022-09-02T09:35:58.690Z,22.10
2022-09-02T09:41:17.579Z,22.30
2022-09-02T09:46:32.128Z,22.60
2022-09-02T09:51:49.933Z,22.50
2022-09-02T09:56:55.125Z,22.60
2022-09-02T10:01:59.493Z,23.00
2022-09-02T10:07:02.456Z,22.80
2022-09-02T10:12:07.590Z,22.80
2022-09-02T10:17:33.591Z,23.00
2022-09-02T10:23:00.862Z,23.40
2022-09-02T10:28:15.254Z,23.80
2022-09-02T10:33:28.774Z,23.70
2022-09-02T10:38:38.711Z,23.80
2022-09-02T10:43:57.609Z,23.60
2022-09-02T10:49:10.459Z,23.80
2022-09-02T10:54:29.061Z,23.90
2022-09-02T10:59:36.591Z,23.90
2022-09-02T11:04:46.596Z,24.00
2022-09-02T11:09:54.512Z,24.10
2022-09-02T11:15:11.337Z,24.40
2022-09-02T11:20:31.980Z,24.60
2022-09-02T11:25:41.847Z,24.60
2022-09-02T11:30:48.467Z,24.70
2022-09-02T11:35:52.720Z,24.70
2022-09-02T11:41:37.442Z,25.00
2022-09-02T11:47:02.435Z,24.70
2022-09-02T11:52:18.269Z,25.10
2022-09-02T11:57:25.167Z,25.00
2022-09-02T12:02:36.766Z,25.00
2022-09-02T12:07:50.950Z,25.20
2022-09-02T12:13:08.155Z,25.20
2022-09-02T12:18:31.078Z,25.20
2022-09-02T12:24:19.737Z,25.30
2022-09-02T12:29:34.176Z,25.60
2022-09-02T12:34:57.576Z,25.70
2022-09-02T12:40:22.640Z,25.80
2022-09-02T12:45:32.299Z,25.70
2022-09-02T12:50:55.966Z,25.90
2022-09-02T12:56:04.524Z,25.90
2022-09-02T13:01:17.999Z,26.10
2022-09-02T13:06:32.026Z,26.30
2022-09-02T13:12:02.089Z,26.50
2022-09-02T13:17:37.874Z,26.30
2022-09-02T13:23:19.324Z,26.50
2022-09-02T13:29:01.031Z,26.50
2022-09-02T13:34:08.185Z,26.40
2022-09-02T13:39:13.519Z,26.40
2022-09-02T13:44:23.610Z,26.50
2022-09-02T13:49:37.806Z,26.50
2022-09-02T13:54:44.423Z,26.50
2022-09-02T13:59:50.730Z,26.60
2022-09-02T14:04:59.546Z,26.80
2022-09-02T14:10:07.826Z,26.90
2022-09-02T14:15:14.577Z,26.90
2022-09-02T14:20:21.494Z,26.90
2022-09-02T14:25:27.511Z,27.00
2022-09-02T14:30:34.562Z,27.20
2022-09-02T14:35:38.836Z,27.30
2022-09-02T14:40:43.491Z,27.20
2022-09-02T14:45:50.238Z,27.10
2022-09-02T14:51:02.728Z,27.20
2022-09-02T14:56:07.212Z,27.20
2022-09-02T15:01:10.240Z,27.20
2022-09-02T15:06:15.327Z,27.20
2022-09-02T15:11:21.585Z,27.20
2022-09-02T15:16:24.601Z,27.30
2022-09-02T15:21:28.877Z,27.40
2022-09-02T15:26:32.015Z,27.30
2022-09-02T15:31:36.899Z,27.40
2022-09-02T15:36:41.524Z,27.30
2022-09-02T15:41:45.364Z,27.20
2022-09-02T15:46:50.288Z,27.20
2022-09-02T15:51:55.291Z,27.30
2022-09-02T15:56:59.707Z,27.40
2022-09-02T16:02:02.709Z,27.60
2022-09-02T16:07:07.139Z,27.60
2022-09-02T16:12:10.569Z,27.70
2022-09-02T16:17:13.451Z,27.60
2022-09-02T16:22:17.700Z,27.70
2022-09-02T16:27:40.678Z,27.60
2022-09-02T16:32:43.549Z,27.50
2022-09-02T16:37:47.908Z,27.40
2022-09-02T16:42:50.907Z,27.50
2022-09-02T16:47:53.827Z,27.50
2022-09-02T16:52:59.108Z,27.50
2022-09-02T16:58:02.869Z,27.40
2022-09-02T17:03:05.991Z,27.30
2022-09-02T17:08:10.177Z,27.20
2022-09-02T17:13:13.156Z,27.10
2022-09-02T17:18:16.023Z,27.00
2022-09-02T17:23:20.532Z,27.00
2022-09-02T17:28:27.059Z,26.90
2022-09-02T17:33:30.257Z,26.80
2022-09-02T17:38:34.613Z,26.70
2022-09-02T17:43:38.659Z,26.60
2022-09-02T17:49:05.656Z,26.50
2022-09-02T17:54:08.174Z,26.30
2022-09-02T17:59:19.884Z,26.20
2022-09-02T18:04:34.640Z,26.10
2022-09-02T18:09:40.095Z,26.10
2022-09-02T18:14:48.869Z,25.90
2022-09-02T18:19:59.028Z,25.70
2022-09-02T18:25:21.256Z,25.50
2022-09-02T18:30:28.420Z,25.30
2022-09-02T18:35:41.093Z,24.80
2022-09-02T18:40:53.094Z,24.80
2022-09-02T18:46:00.945Z,24.60
2022-09-02T18:51:09.918Z,24.50
2022-09-02T18:56:14.944Z,24.40
2022-09-02T19:01:23.581Z,24.60
2022-09-02T19:06:28.857Z,24.60
2022-09-02T19:11:35.653Z,24.60
2022-09-02T19:16:39.888Z,24.50
2022-09-02T19:21:47.974Z,24.60
2022-09-02T19:26:54.042Z,24.50
2022-09-02T19:31:57.056Z,24.50
2022-09-02T19:37:00.815Z,24.40
2022-09-02T19:42:06.535Z,24.30
2022-09-02T19:52:38.544Z,23.60
2022-09-02T19:57:43.079Z,23.10
2022-09-02T20:02:46.007Z,22.90
2022-09-02T20:07:48.962Z,22.50
2022-09-02T20:12:53.187Z,23.10
2022-09-02T20:18:08.824Z,23.40
2022-09-02T20:23:16.976Z,23.60
2022-09-02T20:28:26.761Z,23.70
2022-09-02T20:33:36.054Z,23.70
2022-09-02T20:39:05.415Z,23.70
2022-09-02T20:44:41.094Z,23.60
2022-09-02T20:49:57.901Z,23.70
2022-09-02T20:55:08.586Z,23.70
2022-09-02T21:00:16.131Z,23.50
2022-09-02T21:05:23.949Z,23.40
2022-09-02T21:10:33.205Z,23.40
2022-09-02T21:15:45.773Z,23.50
2022-09-02T21:20:52.734Z,23.50
2022-09-02T21:25:58.193Z,23.50
2022-09-02T21:31:09.470Z,23.50
2022-09-02T21:36:14.607Z,23.40
2022-09-02T21:41:31.587Z,23.30
2022-09-02T21:46:46.178Z,22.90
2022-09-02T21:51:56.162Z,22.80
2022-09-02T21:57:19.140Z,22.40
2022-09-02T22:02:34.932Z,22.50
2022-09-02T22:07:44.349Z,22.70
2022-09-02T22:12:52.601Z,22.90
2022-09-02T22:18:04.043Z,22.90
2022-09-02T22:23:15.506Z,23.00
2022-09-02T22:28:25.870Z,22.90
2022-09-02T22:33:34.696Z,22.80
2022-09-02T22:38:46.238Z,22.60
2022-09-02T22:43:55.776Z,22.70
2022-09-02T22:49:20.800Z,22.50
2022-09-02T22:54:23.769Z,22.70
2022-09-02T22:59:37.886Z,22.70
2022-09-02T23:05:02.729Z,22.70
2022-09-02T23:10:24.153Z,22.60
2022-09-02T23:15:32.416Z,22.70
2022-09-02T23:20:45.322Z,22.60
2022-09-02T23:26:16.604Z,22.50
2022-09-02T23:31:30.497Z,22.50
2022-09-02T23:36:43.772Z,22.50
2022-09-02T23:41:46.888Z,22.50
2022-09-02T23:47:00.845Z,22.40
2022-09-02T23:52:11.182Z,22.30
2022-09-02T23:57:34.585Z,22.10
